EDV401 KBUF-KBOS
Flight info
| Callsign | EDV401 |
|---|---|
| Flight time | N/A |
| Altitude | 31000 |
| Route | JOSSY Q935 PONCT JFUND2 |
| Aircraft | CRJ7/M-SDFGIRWY/S |
Departure
| Time | 2026-05-07 23:31 |
|---|---|
| Airport | Buffalo Niagara International Airport (KBUF) |
Arrival
| Time | N/A |
|---|---|
| Airport | Boston Logan International Airport (KBOS) |
| Time | Latitude | Longitude | Altitude | Speed | Heading |
|---|---|---|---|---|---|
| 2026-05-07 23:11 | 42.93635 | -78.73070 | 708 ft | 0 kts | 134° |
| 2026-05-07 23:14 | 42.93635 | -78.73069 | 708 ft | 0 kts | 134° |
| 2026-05-07 23:24 | 42.93645 | -78.73083 | 702 ft | 2 kts | 135° |
| 2026-05-07 23:24 | 42.93652 | -78.73093 | 705 ft | 2 kts | 122° |
| 2026-05-07 23:25 | 42.93657 | -78.73112 | 696 ft | 3 kts | 92° |
| 2026-05-07 23:25 | 42.93654 | -78.73128 | 704 ft | 0 kts | 52° |
| 2026-05-07 23:27 | 42.93691 | -78.73089 | 706 ft | 11 kts | 36° |
| 2026-05-07 23:27 | 42.93771 | -78.72998 | 710 ft | 16 kts | 41° |
| 2026-05-07 23:27 | 42.93872 | -78.72970 | 712 ft | 15 kts | 24° |
| 2026-05-07 23:28 | 42.93950 | -78.72875 | 715 ft | 16 kts | 44° |
| 2026-05-07 23:28 | 42.94040 | -78.72758 | 714 ft | 19 kts | 44° |
| 2026-05-07 23:28 | 42.94136 | -78.72630 | 721 ft | 20 kts | 44° |
| 2026-05-07 23:28 | 42.94241 | -78.72492 | 722 ft | 22 kts | 44° |
| 2026-05-07 23:29 | 42.94355 | -78.72343 | 726 ft | 24 kts | 44° |
| 2026-05-07 23:29 | 42.94477 | -78.72183 | 728 ft | 25 kts | 43° |
| 2026-05-07 23:29 | 42.94599 | -78.72024 | 732 ft | 23 kts | 43° |
| 2026-05-07 23:29 | 42.94711 | -78.71876 | 734 ft | 22 kts | 44° |
| 2026-05-07 23:30 | 42.94782 | -78.71812 | 737 ft | 8 kts | 358° |
| 2026-05-07 23:30 | 42.94839 | -78.71878 | 737 ft | 15 kts | 287° |
| 2026-05-07 23:30 | 42.94760 | -78.72022 | 734 ft | 38 kts | 224° |
| 2026-05-07 23:30 | 42.94388 | -78.72510 | 725 ft | 108 kts | 224° |
| 2026-05-07 23:31 | 42.93714 | -78.73391 | 791 ft | 152 kts | 224° |
| 2026-05-07 23:31 | 42.92916 | -78.74420 | 1336 ft | 163 kts | 225° |
| 2026-05-07 23:31 | 42.92007 | -78.75438 | 1907 ft | 182 kts | 220° |
| 2026-05-07 23:31 | 42.90916 | -78.76564 | 2211 ft | 209 kts | 219° |
| 2026-05-07 23:32 | 42.89687 | -78.77798 | 2658 ft | 228 kts | 219° |
| 2026-05-07 23:32 | 42.88358 | -78.79110 | 3193 ft | 243 kts | 218° |
| 2026-05-07 23:32 | 42.86953 | -78.80481 | 3848 ft | 251 kts | 218° |
| 2026-05-07 23:32 | 42.85513 | -78.81876 | 4619 ft | 255 kts | 218° |
| 2026-05-07 23:33 | 42.84068 | -78.83262 | 5416 ft | 256 kts | 218° |
| 2026-05-07 23:33 | 42.82602 | -78.84661 | 6214 ft | 258 kts | 218° |
| 2026-05-07 23:33 | 42.81127 | -78.86072 | 6961 ft | 260 kts | 218° |
| 2026-05-07 23:33 | 42.79636 | -78.87493 | 7705 ft | 261 kts | 218° |
| 2026-05-07 23:34 | 42.78139 | -78.88917 | 8441 ft | 263 kts | 218° |
| 2026-05-07 23:34 | 42.76654 | -78.90326 | 9151 ft | 265 kts | 218° |
| 2026-05-07 23:34 | 42.75119 | -78.91785 | 9671 ft | 275 kts | 218° |
| 2026-05-07 23:34 | 42.73482 | -78.93320 | 9877 ft | 296 kts | 214° |
| 2026-05-07 23:35 | 42.71450 | -78.94271 | 9973 ft | 327 kts | 190° |
| 2026-05-07 23:35 | 42.69106 | -78.93965 | 10017 ft | 358 kts | 167° |
| 2026-05-07 23:35 | 42.66872 | -78.92322 | 10660 ft | 367 kts | 143° |
| 2026-05-07 23:35 | 42.65278 | -78.89692 | 11888 ft | 359 kts | 121° |